Portada
METAR-TAF:

METAR-TAF

Aeroports :

Esmeraldas, Equador

latitud: 00-58-43N, longitud: 079-37-36W, altitud: 10 m

Observació

L'informe es va fer fa 11 hores i 24 minuts, a les 20:00 UTC
Vent 8 kt del Oest
Temperatura 29°C
Humitat 74%
Pressió 1008 hPa
Visibilitat 10 km o més
Escasses núvols a una alçada de 3000 ft
Cel ennuvolat a una alçada de 30000 ft

METAR: SETN 262000Z 28008KT 9999 FEW030 BKN300 29/24 Q1008 A2978

Hora: 02:24 (07:24 UTC)


TAF: manca

Observacions i pronòstics meteorològics de més de 4000 aeroports (METAR i TAF).

Les estacions disponibles són els punts grocs i vermells al mapa.

Posi el ratolí al punt desitjat per veure el nom de l'estació.

Feu clic per veure les observacions i els pronòstics meteorològics.

Per canviar el mapa: feu clic els botons verds amb una creu de color negre per apropar; al botó verd amb un guió per allunyar la imatge; o en les fletxes verdes per a mapes adjacents.


METAR-TAF: